Time;durP1;ratioP1;P1;durP2;ratioP2;P2;SDS_P1;SDS_P2;PMS_P1;PMS_P2;Temp;Humidity;BMP_temperature;BMP_pressure;BME280_temperature;BME280_humidity;BME280_pressure;Samples;Min_cycle;Max_cycle;Signal;HPM_P1;HPM_P2
2022/12/01 00:02:15;;;;;;;145.32;44.92;;;4.90;99.90;;;;;;5067938;28;20040;-44
2022/12/01 00:04:41;;;;;;;132.02;42.28;;;4.80;99.90;;;;;;5067439;28;20045;-44
2022/12/01 00:07:07;;;;;;;144.82;41.22;;;4.90;99.90;;;;;;5067829;28;20037;-47
2022/12/01 00:12:21;;;;;;;122.93;42.20;;;5.00;99.90;;;;;;5038307;28;20054;-44
2022/12/01 00:14:53;;;;;;;118.78;43.50;;;4.90;99.90;;;;;;5067364;28;20044;-45
2022/12/01 00:17:20;;;;;;;127.97;43.13;;;4.90;99.90;;;;;;5067258;28;20052;-45
2022/12/01 00:19:45;;;;;;;117.32;41.78;;;4.90;99.90;;;;;;5067593;28;20040;-44
2022/12/01 00:22:11;;;;;;;123.80;42.95;;;4.90;99.90;;;;;;5067276;28;20740;-44
2022/12/01 00:24:37;;;;;;;127.22;42.42;;;4.90;99.90;;;;;;5065663;28;20129;-48
2022/12/01 00:27:03;;;;;;;121.70;43.53;;;5.30;99.90;;;;;;5067210;28;20044;-46
2022/12/01 00:29:28;;;;;;;114.22;41.97;;;5.00;99.90;;;;;;5067255;28;20043;-43
2022/12/01 00:31:54;;;;;;;130.23;42.47;;;4.90;99.90;;;;;;5067260;28;20040;-45
2022/12/01 00:34:23;;;;;;;123.47;43.72;;;4.90;99.90;;;;;;5067122;28;20043;-44
2022/12/01 00:36:49;;;;;;;120.28;42.95;;;4.90;99.90;;;;;;5066563;28;20043;-46
2022/12/01 00:39:14;;;;;;;120.50;43.38;;;4.90;99.90;;;;;;5066994;28;20047;-45
2022/12/01 00:41:40;;;;;;;112.55;42.65;;;4.80;99.90;;;;;;5066831;28;20140;-46
2022/12/01 00:44:06;;;;;;;137.90;43.30;;;4.90;99.90;;;;;;5066956;28;20052;-46
2022/12/01 00:46:31;;;;;;;126.70;44.85;;;4.70;99.90;;;;;;5065535;28;20059;-44
2022/12/01 00:48:57;;;;;;;125.15;43.00;;;4.90;99.90;;;;;;5067053;28;20051;-46
2022/12/01 00:51:23;;;;;;;126.43;44.25;;;5.00;99.90;;;;;;5066988;28;20068;-45
2022/12/01 00:53:49;;;;;;;130.48;43.00;;;4.90;99.90;;;;;;5066722;28;20562;-45
2022/12/01 00:56:14;;;;;;;131.75;43.10;;;5.10;99.90;;;;;;5066803;28;20052;-44
2022/12/01 00:58:40;;;;;;;124.93;43.03;;;4.90;99.90;;;;;;5066577;28;20517;-48
2022/12/01 01:01:06;;;;;;;119.90;43.28;;;4.90;99.90;;;;;;5066497;28;20048;-44
2022/12/01 01:03:32;;;;;;;118.80;44.88;;;4.80;99.90;;;;;;5066698;28;20079;-43
2022/12/01 01:06:10;;;;;;;137.68;45.08;;;4.90;99.90;;;;;;5066020;28;20067;-45
2022/12/01 01:08:36;;;;;;;119.80;42.78;;;4.90;99.90;;;;;;5066327;28;20051;-44
2022/12/01 01:11:03;;;;;;;132.63;43.45;;;5.00;99.90;;;;;;5066342;28;20063;-45
2022/12/01 01:13:29;;;;;;;133.68;45.00;;;5.60;99.90;;;;;;5048636;28;20094;-44
2022/12/01 01:16:07;;;;;;;121.72;42.72;;;4.90;99.90;;;;;;5066315;28;20794;-44
2022/12/01 01:18:33;;;;;;;139.40;47.35;;;4.70;99.90;;;;;;5066481;28;20103;-44
2022/12/01 01:21:05;;;;;;;137.93;44.38;;;4.90;99.90;;;;;;5066209;28;20682;-45
2022/12/01 01:23:30;;;;;;;122.88;42.25;;;4.90;99.90;;;;;;5066256;28;20068;-44
2022/12/01 01:26:08;;;;;;;137.57;47.03;;;4.80;99.90;;;;;;5066179;28;20057;-44
2022/12/01 01:28:34;;;;;;;123.20;45.00;;;4.80;99.90;;;;;;5066910;28;20032;-44
2022/12/01 01:31:05;;;;;;;138.13;47.03;;;5.10;99.90;;;;;;5066907;28;20418;-44
2022/12/01 01:33:31;;;;;;;125.55;42.42;;;4.70;99.90;;;;;;5066754;28;20127;-44
2022/12/01 01:36:00;;;;;;;129.68;47.28;;;4.80;99.90;;;;;;5066404;28;20143;-45
2022/12/01 01:38:27;;;;;;;137.95;46.45;;;5.50;99.90;;;;;;5066452;28;20059;-45
2022/12/01 01:40:53;;;;;;;135.23;47.85;;;5.10;99.90;;;;;;5066337;28;20125;-44
2022/12/01 01:43:49;;;;;;;124.15;45.60;;;4.90;99.90;;;;;;5066176;28;20036;-45
2022/12/01 01:46:20;;;;;;;126.40;46.53;;;4.80;99.90;;;;;;5066487;28;20102;-44
2022/12/01 01:48:53;;;;;;;112.30;45.10;;;4.90;99.90;;;;;;5066005;28;20079;-45
2022/12/01 01:51:24;;;;;;;112.63;43.75;;;4.70;99.90;;;;;;5066385;28;20048;-44
2022/12/01 01:53:53;;;;;;;150.57;46.22;;;4.90;99.90;;;;;;5070027;28;20036;-44
2022/12/01 01:56:20;;;;;;;119.07;48.47;;;4.80;99.90;;;;;;5070241;28;20067;-45
2022/12/01 01:58:46;;;;;;;130.50;45.80;;;4.90;99.90;;;;;;5051673;28;20055;-46
2022/12/01 02:01:12;;;;;;;125.57;45.83;;;5.10;99.90;;;;;;5070142;28;20123;-45
2022/12/01 02:03:40;;;;;;;147.75;45.75;;;5.00;99.90;;;;;;5070270;28;20190;-44
2022/12/01 02:06:08;;;;;;;126.90;46.47;;;4.90;99.90;;;;;;5069416;28;20082;-44
2022/12/01 02:08:35;;;;;;;138.98;46.67;;;4.80;99.90;;;;;;5051661;28;20045;-45
2022/12/01 02:11:21;;;;;;;147.35;45.05;;;4.80;99.90;;;;;;5069534;28;20044;-45
2022/12/01 02:13:56;;;;;;;131.95;45.20;;;4.70;99.90;;;;;;5069356;28;20155;-44
2022/12/01 02:16:50;;;;;;;157.13;48.63;;;4.80;99.90;;;;;;5069796;28;20427;-45
2022/12/01 02:19:21;;;;;;;150.93;48.13;;;4.70;99.90;;;;;;5069434;28;20052;-45
2022/12/01 02:22:25;;;;;;;135.48;49.17;;;4.70;99.90;;;;;;5049906;28;20155;-46
2022/12/01 02:24:53;;;;;;;133.05;45.95;;;4.70;99.90;;;;;;5069073;28;20060;-46
2022/12/01 02:27:48;;;;;;;145.50;44.90;;;5.00;99.90;;;;;;5069371;28;20040;-46
2022/12/01 02:30:36;;;;;;;138.90;48.70;;;4.70;99.90;;;;;;5069342;28;20479;-45
2022/12/01 02:33:27;;;;;;;125.35;47.33;;;4.70;99.90;;;;;;5069156;28;20032;-45
2022/12/01 02:36:03;;;;;;;143.38;48.53;;;4.70;99.90;;;;;;5069062;28;20056;-45
2022/12/01 02:38:33;;;;;;;122.45;46.35;;;4.80;99.90;;;;;;5069510;28;20049;-48
2022/12/01 02:41:09;;;;;;;145.55;49.40;;;4.80;99.90;;;;;;5069151;28;20040;-45
2022/12/01 02:43:47;;;;;;;118.30;47.08;;;4.60;99.90;;;;;;5068968;28;20098;-46
2022/12/01 02:46:44;;;;;;;119.32;46.53;;;4.60;99.90;;;;;;5068944;28;20040;-45
2022/12/01 02:49:19;;;;;;;112.68;45.17;;;4.70;99.90;;;;;;5068712;28;20930;-47
2022/12/01 02:51:47;;;;;;;117.40;47.83;;;4.80;99.90;;;;;;5069199;28;20033;-47
2022/12/01 02:54:14;;;;;;;120.63;46.50;;;4.80;99.90;;;;;;5068902;28;20036;-47
2022/12/01 02:56:43;;;;;;;115.63;46.22;;;4.80;99.90;;;;;;5068981;28;20125;-44
2022/12/01 02:59:11;;;;;;;117.30;48.22;;;5.50;99.90;;;;;;5069040;28;20044;-44
2022/12/01 03:01:56;;;;;;;111.82;45.47;;;4.80;99.90;;;;;;5069421;28;20056;-44
2022/12/01 03:04:33;;;;;;;122.90;47.38;;;4.60;99.90;;;;;;5067626;28;20051;-44
2022/12/01 03:07:29;;;;;;;126.45;46.08;;;4.80;99.90;;;;;;5067697;28;20059;-45
2022/12/01 03:10:24;;;;;;;134.90;47.72;;;4.60;99.90;;;;;;5068840;28;20428;-47
2022/12/01 03:13:21;;;;;;;137.77;49.30;;;4.60;99.90;;;;;;5068589;28;20115;-48
2022/12/01 03:16:04;;;;;;;124.13;46.90;;;4.60;99.90;;;;;;5068719;28;20045;-46
2022/12/01 03:18:40;;;;;;;135.48;49.28;;;4.60;99.90;;;;;;5068710;28;20040;-48
2022/12/01 03:21:22;;;;;;;119.45;45.38;;;4.70;99.90;;;;;;5068800;28;20045;-45
2022/12/01 03:23:55;;;;;;;131.05;46.55;;;4.50;99.90;;;;;;5068268;28;20481;-45
2022/12/01 03:26:23;;;;;;;137.48;48.40;;;4.70;99.90;;;;;;5068870;28;20087;-48
2022/12/01 03:28:57;;;;;;;132.98;49.20;;;4.60;99.90;;;;;;5068292;28;20573;-46
2022/12/01 03:31:28;;;;;;;138.95;47.85;;;4.70;99.90;;;;;;5069034;28;20045;-47
2022/12/01 03:34:02;;;;;;;144.88;49.40;;;4.70;99.90;;;;;;5068596;28;20094;-48
2022/12/01 03:36:41;;;;;;;135.23;47.90;;;4.70;99.90;;;;;;5068057;28;20490;-45
2022/12/01 03:39:13;;;;;;;135.30;48.40;;;4.60;99.90;;;;;;5068108;28;20046;-46
2022/12/01 03:41:44;;;;;;;131.85;47.95;;;4.70;99.90;;;;;;5068493;28;20052;-43
2022/12/01 03:44:21;;;;;;;144.02;47.53;;;4.80;99.90;;;;;;5050022;28;20571;-47
2022/12/01 03:46:56;;;;;;;129.57;48.42;;;4.60;99.90;;;;;;5068285;28;20045;-47
2022/12/01 03:49:24;;;;;;;138.93;49.58;;;4.60;99.90;;;;;;5068473;28;20041;-46
2022/12/01 03:52:05;;;;;;;128.10;47.60;;;4.70;99.90;;;;;;5068431;28;20143;-45
2022/12/01 03:54:52;;;;;;;137.70;50.97;;;4.50;99.90;;;;;;5068607;28;20068;-44
2022/12/01 03:57:34;;;;;;;138.98;49.67;;;4.50;99.90;;;;;;5068213;28;20490;-44
2022/12/01 04:00:00;;;;;;;139.55;48.25;;;4.60;99.90;;;;;;5068278;28;20592;-45
2022/12/01 04:02:27;;;;;;;158.18;49.75;;;2.70;99.90;;;;;;5068434;28;20409;-45
2022/12/01 04:04:53;;;;;;;149.05;50.35;;;4.60;99.90;;;;;;5068591;28;20063;-48
2022/12/01 04:07:20;;;;;;;151.27;49.88;;;4.60;99.90;;;;;;5068539;28;20871;-47
2022/12/01 04:09:46;;;;;;;156.52;48.03;;;4.50;99.90;;;;;;5068512;28;20205;-47
2022/12/01 04:12:28;;;;;;;143.63;50.58;;;4.40;99.90;;;;;;5068670;28;20037;-46
2022/12/01 04:14:55;;;;;;;;;;;4.50;99.90;;;;;;5068460;28;20102;-45
2022/12/01 04:17:21;;;;;;;158.48;49.08;;;4.50;99.90;;;;;;5067837;28;20353;-45
2022/12/01 04:19:47;;;;;;;163.48;52.20;;;4.50;99.90;;;;;;5067699;28;20090;-45
2022/12/01 04:22:12;;;;;;;177.45;52.22;;;4.50;99.90;;;;;;5067163;28;20052;-46
2022/12/01 04:24:38;;;;;;;167.75;48.42;;;4.40;99.90;;;;;;5067470;28;20052;-48
2022/12/01 04:27:04;;;;;;;168.85;51.33;;;4.50;99.90;;;;;;5049178;28;20379;-44
2022/12/01 04:29:29;;;;;;;175.93;47.83;;;4.40;99.90;;;;;;5067037;28;20040;-46
2022/12/01 04:31:55;;;;;;;188.70;50.95;;;4.40;99.90;;;;;;5067330;28;20463;-48
2022/12/01 04:34:20;;;;;;;156.52;51.30;;;4.50;99.90;;;;;;5067200;28;20504;-45
2022/12/01 04:36:46;;;;;;;168.52;52.45;;;4.30;99.90;;;;;;5067199;28;20752;-47
2022/12/01 04:39:12;;;;;;;164.40;52.72;;;4.70;99.90;;;;;;5049229;28;20048;-44
2022/12/01 04:41:38;;;;;;;158.88;50.58;;;4.50;99.90;;;;;;5067694;28;20040;-46
2022/12/01 04:44:03;;;;;;;173.18;51.47;;;5.40;99.90;;;;;;5067350;28;20394;-44
2022/12/01 04:46:29;;;;;;;163.88;50.45;;;4.30;99.90;;;;;;5067070;28;20087;-46
2022/12/01 04:48:55;;;;;;;171.50;52.95;;;4.40;99.90;;;;;;5066516;28;20048;-44
2022/12/01 04:51:21;;;;;;;179.77;50.05;;;4.40;99.90;;;;;;5066861;28;20044;-45
2022/12/01 04:53:47;;;;;;;184.65;55.00;;;4.40;99.90;;;;;;5066533;28;20467;-46
2022/12/01 04:56:13;;;;;;;161.48;53.78;;;4.00;99.90;;;;;;5066635;28;20371;-45
2022/12/01 04:58:39;;;;;;;217.48;52.53;;;4.40;99.90;;;;;;5066845;28;20051;-45
2022/12/01 05:01:11;;;;;;;202.48;54.13;;;4.50;99.90;;;;;;5066995;28;20045;-45
2022/12/01 05:03:38;;;;;;;159.82;53.97;;;4.40;99.90;;;;;;5066762;28;20048;-45
2022/12/01 05:06:12;;;;;;;171.85;53.80;;;4.40;99.90;;;;;;5066257;28;20053;-44
2022/12/01 05:08:38;;;;;;;183.75;52.13;;;4.50;99.90;;;;;;5066327;28;20040;-44
2022/12/01 05:11:06;;;;;;;184.43;53.28;;;4.40;99.90;;;;;;5048755;28;20120;-44
2022/12/01 05:13:32;;;;;;;199.50;53.42;;;4.50;99.90;;;;;;5066442;28;20072;-47
2022/12/01 05:16:13;;;;;;;184.52;53.55;;;4.50;99.90;;;;;;5066361;28;20492;-45
2022/12/01 05:18:39;;;;;;;197.13;54.45;;;4.50;99.90;;;;;;5066944;28;20040;-44
2022/12/01 05:21:07;;;;;;;184.60;52.20;;;4.50;99.90;;;;;;5048444;28;20078;-44
2022/12/01 05:23:35;;;;;;;170.18;54.30;;;4.40;99.90;;;;;;5065948;28;20098;-46
2022/12/01 05:26:02;;;;;;;166.93;51.53;;;4.40;99.90;;;;;;5066511;28;20052;-48
2022/12/01 05:28:28;;;;;;;189.70;53.78;;;4.50;99.90;;;;;;5066083;28;20924;-48
2022/12/01 05:30:54;;;;;;;203.25;52.80;;;4.50;99.90;;;;;;5066696;28;20036;-48
2022/12/01 05:33:21;;;;;;;172.15;47.55;;;4.50;99.90;;;;;;5066331;28;20040;-44
2022/12/01 05:35:48;;;;;;;165.68;51.53;;;4.60;99.90;;;;;;5048184;28;20094;-46
2022/12/01 05:38:14;;;;;;;199.13;53.30;;;4.50;99.90;;;;;;5066416;28;20497;-46
2022/12/01 05:40:39;;;;;;;160.82;51.75;;;4.50;99.90;;;;;;5066357;28;20123;-46
2022/12/01 05:43:05;;;;;;;191.15;50.53;;;4.50;99.90;;;;;;5066004;28;20395;-48
2022/12/01 05:45:32;;;;;;;171.05;51.75;;;4.50;99.90;;;;;;5047616;28;20631;-45
2022/12/01 05:48:00;;;;;;;174.05;52.58;;;4.50;99.90;;;;;;5066192;28;20051;-49
2022/12/01 05:50:27;;;;;;;169.45;52.47;;;4.50;99.90;;;;;;5066083;28;20036;-47
2022/12/01 05:52:53;;;;;;;191.77;50.50;;;4.60;99.90;;;;;;5066149;28;20045;-44
2022/12/01 05:55:19;;;;;;;185.75;52.92;;;4.50;99.90;;;;;;5066009;28;20086;-45
2022/12/01 05:57:45;;;;;;;160.93;52.10;;;4.50;99.90;;;;;;5066027;28;20775;-45
2022/12/01 06:00:12;;;;;;;197.07;51.55;;;5.40;99.90;;;;;;5048082;28;20051;-45
2022/12/01 06:02:39;;;;;;;169.60;51.78;;;4.40;99.90;;;;;;5066012;28;20465;-48
2022/12/01 06:05:06;;;;;;;164.70;52.13;;;4.80;99.90;;;;;;5066274;28;20052;-46
2022/12/01 06:07:33;;;;;;;188.05;52.58;;;4.40;99.90;;;;;;5066243;28;20049;-45
2022/12/01 06:09:59;;;;;;;206.73;53.28;;;4.40;99.90;;;;;;5066389;28;20047;-46
2022/12/01 06:12:25;;;;;;;186.52;49.17;;;4.70;99.90;;;;;;5064543;28;20048;-47
2022/12/01 06:14:51;;;;;;;169.13;47.58;;;4.20;99.90;;;;;;5065924;28;20056;-45
2022/12/01 06:17:16;;;;;;;204.07;50.72;;;4.50;99.90;;;;;;5065837;28;20095;-44
2022/12/01 06:19:46;;;;;;;198.60;51.22;;;4.50;99.90;;;;;;5065678;28;20045;-45
2022/12/01 06:22:12;;;;;;;203.07;51.90;;;4.50;99.90;;;;;;5048457;28;20056;-45
2022/12/01 06:24:38;;;;;;;197.40;52.13;;;4.50;99.90;;;;;;5065305;28;20117;-45
2022/12/01 06:27:03;;;;;;;189.48;49.53;;;4.50;99.90;;;;;;5066040;28;20037;-45
2022/12/01 06:29:29;;;;;;;184.23;51.03;;;4.50;99.90;;;;;;5065783;28;20667;-45
2022/12/01 06:31:55;;;;;;;184.38;48.58;;;4.40;99.90;;;;;;5065857;28;20075;-46
2022/12/01 06:34:21;;;;;;;170.88;51.47;;;4.40;99.90;;;;;;5066008;28;20033;-45
2022/12/01 06:36:47;;;;;;;177.65;50.25;;;4.40;99.90;;;;;;5065723;28;20052;-45
2022/12/01 06:39:15;;;;;;;165.95;50.78;;;4.40;99.90;;;;;;5068921;28;20044;-47
2022/12/01 06:41:41;;;;;;;165.38;52.33;;;4.40;99.90;;;;;;5069134;28;20040;-45
2022/12/01 06:44:07;;;;;;;218.95;53.75;;;4.40;99.90;;;;;;5069663;28;20029;-45
2022/12/01 06:46:32;;;;;;;188.35;51.55;;;4.70;99.90;;;;;;5069213;28;20451;-45
2022/12/01 06:48:58;;;;;;;157.40;50.97;;;4.60;99.90;;;;;;5069332;28;20040;-44
2022/12/01 06:51:24;;;;;;;159.07;49.95;;;4.70;99.90;;;;;;5069310;28;20127;-44
2022/12/01 06:53:54;;;;;;;154.68;49.58;;;4.50;99.90;;;;;;5068717;28;20091;-45
2022/12/01 06:56:20;;;;;;;181.85;50.25;;;4.50;99.90;;;;;;5068909;28;20045;-44
2022/12/01 06:58:47;;;;;;;179.80;49.45;;;4.60;99.90;;;;;;5068953;28;20048;-44
2022/12/01 07:01:13;;;;;;;157.40;49.42;;;4.60;99.90;;;;;;5069003;28;20617;-44
2022/12/01 07:03:39;;;;;;;182.77;51.08;;;4.50;99.90;;;;;;5069123;28;20056;-45
2022/12/01 07:06:05;;;;;;;186.40;50.58;;;4.60;99.90;;;;;;5068689;28;20395;-44
2022/12/01 07:08:32;;;;;;;136.90;47.05;;;4.50;99.90;;;;;;5066156;28;20037;-46
2022/12/01 07:11:03;;;;;;;163.02;48.35;;;4.50;99.90;;;;;;5064869;28;20385;-46
2022/12/01 07:13:29;;;;;;;164.55;48.08;;;4.60;99.90;;;;;;5066739;28;20047;-44
2022/12/01 07:15:55;;;;;;;146.90;46.33;;;4.60;99.90;;;;;;5067322;28;20429;-46
2022/12/01 07:18:21;;;;;;;181.25;49.13;;;4.60;99.90;;;;;;5067951;28;20051;-46
2022/12/01 07:20:47;;;;;;;150.82;46.10;;;4.70;99.90;;;;;;5067148;28;20044;-47
2022/12/01 07:23:14;;;;;;;158.98;47.63;;;4.60;99.90;;;;;;5045759;28;20148;-46
2022/12/01 07:25:39;;;;;;;163.23;47.47;;;4.50;99.90;;;;;;5045697;28;20045;-58
2022/12/01 07:28:05;;;;;;;141.35;46.95;;;4.60;99.90;;;;;;5046775;28;20051;-57
2022/12/01 07:30:31;;;;;;;160.75;48.05;;;5.50;99.90;;;;;;5046983;28;20066;-54
2022/12/01 07:32:56;;;;;;;152.88;48.50;;;5.60;99.90;;;;;;5046889;28;20048;-56
2022/12/01 07:35:22;;;;;;;140.65;44.17;;;4.40;99.90;;;;;;5047896;28;20045;-56
2022/12/01 07:37:54;;;;;;;162.63;47.25;;;4.60;99.90;;;;;;5063985;28;20064;-59
2022/12/01 07:40:20;;;;;;;173.77;47.85;;;4.60;99.90;;;;;;5048558;28;20844;-58
2022/12/01 07:42:45;;;;;;;144.55;47.53;;;4.60;99.90;;;;;;5047764;28;20041;-59
2022/12/01 07:45:11;;;;;;;135.13;44.95;;;4.60;99.90;;;;;;5046323;28;20109;-60
2022/12/01 07:47:36;;;;;;;161.25;46.38;;;4.70;99.90;;;;;;5045958;28;20053;-59
2022/12/01 07:50:02;;;;;;;127.28;44.03;;;4.70;99.90;;;;;;5028558;28;20045;-59
2022/12/01 07:52:28;;;;;;;174.40;47.88;;;4.60;99.90;;;;;;5047822;28;20157;-60
2022/12/01 07:54:54;;;;;;;168.20;47.55;;;4.70;99.90;;;;;;5047640;28;20045;-57
2022/12/01 07:57:19;;;;;;;136.60;46.92;;;4.90;99.90;;;;;;5047734;28;20132;-57
2022/12/01 07:59:45;;;;;;;159.30;46.83;;;4.70;99.90;;;;;;5047185;28;20076;-57
2022/12/01 08:02:11;;;;;;;156.50;48.35;;;4.70;99.90;;;;;;5048142;28;20044;-57
2022/12/01 08:04:36;;;;;;;133.45;46.17;;;4.80;99.90;;;;;;5047917;28;20080;-57
2022/12/01 08:07:02;;;;;;;151.27;48.63;;;4.70;99.90;;;;;;5047658;28;20045;-57
2022/12/01 08:09:28;;;;;;;142.10;47.55;;;4.70;99.90;;;;;;5048034;28;20055;-57
2022/12/01 08:11:53;;;;;;;152.45;47.30;;;4.80;99.90;;;;;;5046430;28;20079;-57
2022/12/01 08:14:19;;;;;;;144.25;46.47;;;4.80;99.90;;;;;;5047683;28;20124;-57
2022/12/01 08:16:46;;;;;;;149.57;46.75;;;4.90;99.90;;;;;;5047444;28;20127;-58
2022/12/01 08:19:12;;;;;;;143.70;45.60;;;5.40;99.90;;;;;;5046289;28;20487;-59
2022/12/01 08:21:38;;;;;;;140.60;45.97;;;4.80;99.90;;;;;;5047421;28;20040;-58
2022/12/01 08:24:04;;;;;;;145.73;45.92;;;4.90;99.90;;;;;;5065904;28;20155;-59
2022/12/01 08:26:29;;;;;;;155.80;47.97;;;4.90;99.90;;;;;;5048932;28;20507;-58
2022/12/01 08:28:56;;;;;;;131.77;45.97;;;5.00;99.90;;;;;;5066707;28;20052;-58
2022/12/01 08:31:23;;;;;;;147.77;46.42;;;5.00;99.90;;;;;;5049267;28;20071;-58
2022/12/01 08:33:50;;;;;;;135.85;46.50;;;5.00;99.90;;;;;;5065694;28;20688;-59
2022/12/01 08:36:17;;;;;;;127.18;45.35;;;5.50;99.90;;;;;;5048742;28;20040;-58
2022/12/01 08:38:43;;;;;;;123.65;44.08;;;5.10;99.90;;;;;;5066477;28;20052;-47
2022/12/01 08:41:10;;;;;;;127.97;45.15;;;5.80;99.90;;;;;;5066698;28;20475;-46
2022/12/01 08:43:38;;;;;;;138.32;44.92;;;5.10;99.90;;;;;;5066827;28;20800;-47
2022/12/01 08:46:05;;;;;;;135.65;44.33;;;5.20;99.90;;;;;;5066281;28;20052;-47
2022/12/01 08:48:30;;;;;;;130.18;44.83;;;5.90;99.90;;;;;;5066646;28;20478;-48
2022/12/01 08:51:09;;;;;;;125.70;45.30;;;5.20;99.90;;;;;;5066709;28;20048;-55
2022/12/01 08:53:36;;;;;;;149.18;45.65;;;5.20;99.90;;;;;;5047819;28;20051;-54
2022/12/01 08:56:09;;;;;;;129.80;42.13;;;5.80;99.90;;;;;;5040903;28;20122;-55
2022/12/01 08:58:35;;;;;;;140.13;43.45;;;5.20;99.90;;;;;;5044734;28;20040;-52
2022/12/01 09:01:06;;;;;;;133.52;44.22;;;5.40;99.90;;;;;;5044562;28;20029;-59
2022/12/01 09:03:33;;;;;;;124.15;44.58;;;5.20;99.90;;;;;;5044850;28;20094;-58
2022/12/01 09:06:04;;;;;;;136.10;43.67;;;5.40;99.90;;;;;;5044531;28;20124;-53
2022/12/01 09:08:30;;;;;;;132.35;44.03;;;5.30;99.90;;;;;;5044825;28;20170;-53
2022/12/01 09:10:57;;;;;;;111.78;42.78;;;5.50;99.90;;;;;;5044853;28;20832;-55
2022/12/01 09:13:22;;;;;;;116.63;43.53;;;5.50;99.90;;;;;;5045341;28;20068;-54
2022/12/01 09:15:55;;;;;;;125.90;45.65;;;6.40;99.90;;;;;;5044528;28;20161;-54
2022/12/01 09:18:21;;;;;;;108.45;41.58;;;5.60;99.90;;;;;;5044900;28;20049;-54
2022/12/01 09:20:47;;;;;;;127.78;42.63;;;5.60;99.90;;;;;;5043397;28;20048;-52
2022/12/01 09:23:12;;;;;;;121.60;43.70;;;4.60;99.90;;;;;;5044468;28;20060;-51
2022/12/01 09:25:38;;;;;;;103.93;39.70;;;5.70;99.90;;;;;;5044761;28;20044;-52
2022/12/01 09:28:04;;;;;;;118.70;43.30;;;5.60;99.90;;;;;;5044398;28;20040;-51
2022/12/01 09:30:29;;;;;;;108.15;40.47;;;6.70;99.90;;;;;;5044557;28;20049;-53
2022/12/01 09:32:55;;;;;;;112.18;41.42;;;5.70;99.90;;;;;;5043077;28;20479;-50
2022/12/01 09:35:21;;;;;;;104.10;43.22;;;5.80;99.90;;;;;;5044555;28;20360;-52
2022/12/01 09:37:46;;;;;;;105.03;40.35;;;5.90;99.90;;;;;;5044671;28;20053;-53
2022/12/01 09:40:15;;;;;;;96.20;40.33;;;5.90;99.90;;;;;;5026366;28;20115;-51
2022/12/01 09:42:43;;;;;;;96.75;37.63;;;5.80;99.90;;;;;;5044416;28;20042;-59
2022/12/01 09:45:24;;;;;;;94.40;38.75;;;6.30;99.90;;;;;;5044154;28;20045;-61
2022/12/01 09:47:52;;;;;;;92.65;41.08;;;5.90;99.90;;;;;;5044866;28;20102;-61
2022/12/01 09:50:24;;;;;;;95.07;37.67;;;6.00;99.90;;;;;;5044771;28;20049;-63
2022/12/01 09:52:55;;;;;;;99.10;39.60;;;5.90;99.90;;;;;;5046340;28;20075;-62
2022/12/01 09:55:23;;;;;;;94.97;38.50;;;6.10;99.90;;;;;;5046518;28;20044;-60
2022/12/01 09:57:57;;;;;;;90.45;37.97;;;6.10;99.90;;;;;;5046131;28;20045;-62
2022/12/01 10:00:32;;;;;;;87.47;35.40;;;6.00;99.90;;;;;;5046139;28;20033;-62
2022/12/01 10:03:08;;;;;;;94.00;37.50;;;6.00;99.90;;;;;;5046308;28;20072;-61
2022/12/01 10:05:47;;;;;;;86.47;37.97;;;6.00;99.90;;;;;;5046288;28;20064;-61
2022/12/01 10:08:20;;;;;;;90.85;38.22;;;6.10;99.90;;;;;;5028271;28;20098;-62
2022/12/01 10:10:47;;;;;;;85.82;37.53;;;6.20;99.90;;;;;;5046167;28;20489;-61
2022/12/01 10:13:19;;;;;;;92.45;37.60;;;6.20;99.90;;;;;;5047539;28;20590;-61
2022/12/01 10:15:56;;;;;;;90.18;38.20;;;6.10;99.90;;;;;;5050207;28;20055;-61
2022/12/01 10:18:39;;;;;;;88.10;38.13;;;6.10;99.90;;;;;;5032058;28;20044;-60
2022/12/01 10:21:39;;;;;;;84.15;36.63;;;6.10;99.90;;;;;;5049582;28;20524;-60
2022/12/01 10:24:23;;;;;;;77.15;37.45;;;6.10;99.90;;;;;;5049386;28;20784;-60
2022/12/01 10:27:24;;;;;;;78.20;36.95;;;6.10;99.90;;;;;;5049656;28;20609;-59
2022/12/01 10:30:04;;;;;;;83.60;37.05;;;6.20;99.90;;;;;;5036278;28;20060;-60
2022/12/01 10:33:05;;;;;;;81.72;35.47;;;6.10;99.90;;;;;;5068227;28;20043;-61
2022/12/01 10:35:36;;;;;;;79.72;35.80;;;6.00;99.90;;;;;;5068254;28;20147;-52
2022/12/01 10:38:06;;;;;;;72.15;32.55;;;6.20;99.90;;;;;;5067657;28;20048;-52
2022/12/01 10:40:34;;;;;;;81.13;36.42;;;6.10;99.90;;;;;;5066322;28;20056;-52
2022/12/01 10:43:01;;;;;;;84.28;35.60;;;6.10;99.90;;;;;;5067008;28;20425;-45
2022/12/01 10:45:30;;;;;;;75.28;37.17;;;5.90;99.90;;;;;;5067656;28;20044;-43
2022/12/01 10:48:14;;;;;;;79.13;34.83;;;6.00;99.90;;;;;;5067838;28;20044;-42
2022/12/01 10:51:14;;;;;;;80.97;35.55;;;6.00;99.90;;;;;;5067523;28;20087;-42
2022/12/01 10:53:40;;;;;;;86.13;36.30;;;6.70;99.90;;;;;;5067775;28;20148;-42
2022/12/01 10:56:12;;;;;;;76.68;33.85;;;7.00;99.90;;;;;;5067470;28;20113;-42
2022/12/01 10:59:01;;;;;;;82.85;35.78;;;6.10;99.90;;;;;;5067437;28;20052;-42
2022/12/01 11:01:30;;;;;;;78.90;34.60;;;6.20;99.90;;;;;;5066904;28;20052;-42
2022/12/01 11:04:04;;;;;;;78.45;34.65;;;6.10;99.90;;;;;;5067082;28;20086;-55
2022/12/01 11:06:31;;;;;;;75.00;33.92;;;7.10;99.90;;;;;;5067043;28;20044;-56
2022/12/01 11:09:18;;;;;;;94.18;37.70;;;6.20;99.90;;;;;;5066748;28;20136;-55
2022/12/01 11:11:45;;;;;;;82.10;36.42;;;6.10;99.90;;;;;;5066937;28;20080;-56
2022/12/01 11:14:20;;;;;;;86.72;37.70;;;6.20;99.90;;;;;;5066718;28;20508;-55
2022/12/01 11:16:48;;;;;;;83.28;35.30;;;6.20;99.90;;;;;;5067007;28;20040;-55
2022/12/01 11:19:33;;;;;;;76.07;35.85;;;6.20;99.90;;;;;;5067012;28;20390;-56
2022/12/01 11:22:22;;;;;;;80.38;36.22;;;6.70;99.90;;;;;;5066728;28;20818;-42
2022/12/01 11:24:54;;;;;;;74.30;34.30;;;6.30;99.90;;;;;;5066646;28;20053;-42
2022/12/01 11:27:22;;;;;;;69.43;34.10;;;6.40;99.90;;;;;;5066828;28;20048;-44
2022/12/01 11:30:09;;;;;;;73.70;34.95;;;6.30;99.90;;;;;;5039785;28;20803;-56
2022/12/01 11:32:38;;;;;;;78.38;35.97;;;6.30;99.90;;;;;;5065673;28;20052;-56
2022/12/01 11:35:04;;;;;;;76.03;35.67;;;6.40;99.90;;;;;;5065323;28;20048;-56
2022/12/01 11:37:35;;;;;;;74.82;35.95;;;6.40;99.90;;;;;;5066447;28;20105;-57
2022/12/01 11:40:12;;;;;;;70.75;35.03;;;7.30;99.90;;;;;;5066709;28;20067;-56
2022/12/01 11:42:40;;;;;;;69.82;32.83;;;6.30;99.90;;;;;;5066491;28;20573;-43
2022/12/01 11:45:21;;;;;;;63.65;30.77;;;6.40;99.90;;;;;;5066552;28;20417;-42
2022/12/01 11:48:11;;;;;;;69.80;31.08;;;6.60;99.90;;;;;;5066510;28;20055;-44
2022/12/01 11:50:40;;;;;;;64.25;31.83;;;6.30;99.90;;;;;;5066526;28;20785;-56
2022/12/01 11:53:34;;;;;;;63.28;30.85;;;7.20;99.90;;;;;;5064798;28;20056;-56
2022/12/01 11:56:27;;;;;;;61.88;31.67;;;6.20;99.90;;;;;;5066187;28;20047;-56
2022/12/01 11:59:05;;;;;;;59.03;29.38;;;6.60;99.90;;;;;;5063670;28;20159;-56
2022/12/01 12:01:52;;;;;;;60.22;31.70;;;6.30;99.90;;;;;;5065699;28;20587;-56
2022/12/01 12:04:26;;;;;;;61.47;31.52;;;6.20;99.90;;;;;;5066062;28;20502;-56
2022/12/01 12:07:10;;;;;;;66.53;33.20;;;6.20;99.90;;;;;;5065999;28;20040;-57
2022/12/01 12:09:50;;;;;;;66.10;31.25;;;6.20;99.90;;;;;;5066057;28;20037;-57
2022/12/01 12:12:24;;;;;;;59.83;29.73;;;6.90;99.90;;;;;;5065543;28;20102;-57
2022/12/01 12:15:24;;;;;;;62.13;30.15;;;6.20;99.90;;;;;;5065852;28;20040;-57
2022/12/01 12:17:59;;;;;;;57.95;30.65;;;6.10;99.90;;;;;;5065561;28;20072;-57
2022/12/01 12:20:30;;;;;;;59.80;30.52;;;6.40;99.90;;;;;;5065408;28;20494;-57
2022/12/01 12:23:15;;;;;;;64.63;32.90;;;6.20;99.90;;;;;;5065651;28;20056;-57
2022/12/01 12:26:02;;;;;;;59.17;29.60;;;6.10;99.90;;;;;;5065443;28;20160;-57
2022/12/01 12:29:05;;;;;;;60.15;30.33;;;6.10;99.90;;;;;;5065570;28;20090;-57
2022/12/01 12:32:01;;;;;;;53.47;28.98;;;6.10;99.90;;;;;;5053203;28;20044;-57
2022/12/01 12:34:48;;;;;;;55.33;30.30;;;6.10;99.90;;;;;;5065363;28;20041;-43
2022/12/01 12:37:19;;;;;;;51.95;29.30;;;6.10;99.90;;;;;;5064421;28;20634;-42
2022/12/01 12:40:20;;;;;;;49.67;28.23;;;7.20;99.90;;;;;;5065537;28;20386;-42
2022/12/01 12:43:18;;;;;;;49.85;28.88;;;6.10;99.90;;;;;;5055882;28;20055;-42
2022/12/01 12:46:09;;;;;;;52.90;29.35;;;6.00;99.90;;;;;;5065137;28;20457;-42
2022/12/01 12:48:53;;;;;;;49.97;28.83;;;6.10;99.90;;;;;;5065248;28;20444;-43
2022/12/01 12:51:33;;;;;;;50.10;28.70;;;6.20;99.90;;;;;;5064948;28;20047;-43
2022/12/01 12:54:42;;;;;;;46.35;26.98;;;6.10;99.90;;;;;;5065138;28;20040;-43
2022/12/01 12:57:18;;;;;;;49.40;28.55;;;6.10;99.90;;;;;;5062098;28;20131;-42